Time,TemperatureF,DewpointF,PressureIn,WindDirection,WindDirectionDegrees,WindSpeedMPH,WindSpeedGustMPH,Humidity,HourlyPrecipIn,Conditions,Clouds,dailyrainin,SolarRadiationWatts/m^2,SoftwareType,DateUTC
2013-02-23 00:13:00,27.8,25.0,30.14,SW,234,1.0,2.0,89,0.00,,,0.00,0,weatherlink.com 1.10,2013-02-23 06:13:00,
2013-02-23 00:27:00,27.5,25.0,30.14,SW,234,0.0,1.0,90,0.00,,,0.00,0,weatherlink.com 1.10,2013-02-23 06:27:00,
2013-02-23 00:43:00,27.0,25.0,30.13,SW,234,0.0,1.0,90,0.00,,,0.00,0,weatherlink.com 1.10,2013-02-23 06:43:00,
2013-02-23 00:58:00,26.8,24.0,30.14,SW,234,0.0,1.0,90,0.00,,,0.00,0,weatherlink.com 1.10,2013-02-23 06:58:00,
2013-02-23 01:13:00,26.7,24.0,30.14,SW,235,0.0,3.0,90,0.00,,,0.00,0,weatherlink.com 1.10,2013-02-23 07:13:00,
2013-02-23 01:28:00,26.8,24.0,30.15,West,277,1.0,3.0,90,0.00,,,0.00,0,weatherlink.com 1.10,2013-02-23 07:28:00,
2013-02-23 01:43:00,26.7,24.0,30.14,West,277,0.0,3.0,89,0.00,,,0.00,0,weatherlink.com 1.10,2013-02-23 07:43:00,
2013-02-23 01:58:00,26.5,24.0,30.13,West,277,0.0,1.0,90,0.00,,,0.00,0,weatherlink.com 1.10,2013-02-23 07:58:00,
2013-02-23 02:13:00,26.1,24.0,30.12,West,277,0.0,0.0,91,0.00,,,0.00,0,weatherlink.com 1.10,2013-02-23 08:13:00,
2013-02-23 02:28:00,25.6,24.0,30.12,West,277,0.0,1.0,92,0.00,,,0.00,0,weatherlink.com 1.10,2013-02-23 08:28:00,
2013-02-23 02:43:00,25.4,24.0,30.11,West,277,0.0,1.0,93,0.00,,,0.00,0,weatherlink.com 1.10,2013-02-23 08:43:00,
2013-02-23 02:58:00,25.2,24.0,30.11,West,277,0.0,1.0,93,0.00,,,0.00,0,weatherlink.com 1.10,2013-02-23 08:58:00,
2013-02-23 03:13:00,24.9,23.0,30.11,West,277,0.0,0.0,93,0.00,,,0.00,0,weatherlink.com 1.10,2013-02-23 09:13:00,
2013-02-23 03:28:00,24.7,23.0,30.09,West,277,0.0,1.0,93,0.00,,,0.00,0,weatherlink.com 1.10,2013-02-23 09:28:00,
2013-02-23 03:43:00,24.4,23.0,30.09,West,277,0.0,0.0,94,0.00,,,0.00,0,weatherlink.com 1.10,2013-02-23 09:43:00,
2013-02-23 03:58:00,24.2,23.0,30.09,West,277,0.0,1.0,94,0.00,,,0.00,0,weatherlink.com 1.10,2013-02-23 09:58:00,
2013-02-23 04:13:00,23.9,23.0,30.09,West,277,0.0,0.0,94,0.00,,,0.00,0,weatherlink.com 1.10,2013-02-23 10:13:00,
2013-02-23 04:28:00,23.8,22.0,30.09,West,277,0.0,1.0,94,0.00,,,0.00,0,weatherlink.com 1.10,2013-02-23 10:28:00,
2013-02-23 04:43:00,23.5,22.0,30.10,West,277,0.0,0.0,94,0.00,,,0.00,0,weatherlink.com 1.10,2013-02-23 10:43:00,
2013-02-23 04:58:00,23.8,22.0,30.10,West,277,0.0,1.0,94,0.00,,,0.00,0,weatherlink.com 1.10,2013-02-23 10:58:00,
2013-02-23 05:13:00,23.8,22.0,30.10,West,277,0.0,2.0,94,0.00,,,0.00,0,weatherlink.com 1.10,2013-02-23 11:13:00,
2013-02-23 05:28:00,23.8,22.0,30.10,West,277,0.0,0.0,94,0.00,,,0.00,0,weatherlink.com 1.10,2013-02-23 11:28:00,
2013-02-23 05:43:00,23.4,22.0,30.09,West,277,0.0,0.0,93,0.00,,,0.00,0,weatherlink.com 1.10,2013-02-23 11:43:00,
2013-02-23 05:58:00,23.0,21.0,30.10,West,277,0.0,0.0,93,0.00,,,0.00,0,weatherlink.com 1.10,2013-02-23 11:58:00,
2013-02-23 06:13:00,23.2,22.0,30.09,West,277,0.0,1.0,94,0.00,,,0.00,0,weatherlink.com 1.10,2013-02-23 12:13:00,
2013-02-23 06:28:00,23.2,22.0,30.09,WSW,244,0.0,2.0,93,0.00,,,0.00,0,weatherlink.com 1.10,2013-02-23 12:28:00,
2013-02-23 06:44:00,22.6,21.0,30.09,WSW,244,0.0,0.0,93,0.00,,,0.00,0,weatherlink.com 1.10,2013-02-23 12:44:00,
2013-02-23 06:58:00,22.4,21.0,30.08,WSW,244,0.0,0.0,93,0.00,,,0.00,7,weatherlink.com 1.10,2013-02-23 12:58:00,
2013-02-23 07:13:00,22.3,21.0,30.09,WSW,244,0.0,0.0,94,0.00,,,0.00,16,weatherlink.com 1.10,2013-02-23 13:13:00,
2013-02-23 07:28:00,22.5,21.0,30.09,WSW,244,0.0,1.0,94,0.00,,,0.00,23,weatherlink.com 1.10,2013-02-23 13:28:00,
2013-02-23 07:43:00,22.6,21.0,30.09,WSW,244,0.0,1.0,94,0.00,,,0.00,30,weatherlink.com 1.10,2013-02-23 13:43:00,
2013-02-23 07:58:00,22.9,22.0,30.10,WSW,244,0.0,1.0,94,0.00,,,0.00,35,weatherlink.com 1.10,2013-02-23 13:58:00,
2013-02-23 08:13:00,23.9,23.0,30.11,WSW,244,0.0,0.0,95,0.00,,,0.00,121,weatherlink.com 1.10,2013-02-23 14:13:00,
2013-02-23 08:28:00,25.1,24.0,30.11,WSW,244,0.0,0.0,95,0.00,,,0.00,192,weatherlink.com 1.10,2013-02-23 14:28:00,
2013-02-23 08:43:00,26.4,25.0,30.11,WSW,244,0.0,0.0,94,0.00,,,0.00,272,weatherlink.com 1.10,2013-02-23 14:43:00,
2013-02-23 08:58:00,28.0,25.0,30.11,WSW,244,0.0,1.0,89,0.00,,,0.00,348,weatherlink.com 1.10,2013-02-23 14:58:00,
2013-02-23 09:13:00,28.7,25.0,30.11,WSW,244,1.0,1.0,86,0.00,,,0.00,248,weatherlink.com 1.10,2013-02-23 15:13:00,
2013-02-23 09:29:00,29.9,25.0,30.11,WSW,244,0.0,2.0,83,0.00,,,0.00,232,weatherlink.com 1.10,2013-02-23 15:29:00,
2013-02-23 09:44:00,30.6,25.0,30.11,WSW,244,0.0,1.0,80,0.00,,,0.00,77,weatherlink.com 1.10,2013-02-23 15:44:00,
2013-02-23 09:59:00,31.3,26.0,30.11,WSW,244,0.0,1.0,79,0.01,,,0.01,547,weatherlink.com 1.10,2013-02-23 15:59:00,
2013-02-23 10:14:00,32.4,26.0,30.11,WSW,249,0.0,2.0,77,0.01,,,0.01,156,weatherlink.com 1.10,2013-02-23 16:14:00,
2013-02-23 10:29:00,33.5,25.0,30.11,WSW,250,0.0,2.0,72,0.01,,,0.01,380,weatherlink.com 1.10,2013-02-23 16:29:00,
2013-02-23 10:44:00,34.8,27.0,30.11,ESE,103,0.0,2.0,72,0.01,,,0.01,643,weatherlink.com 1.10,2013-02-23 16:44:00,
2013-02-23 10:59:00,35.7,26.0,30.11,ESE,113,0.0,3.0,68,0.01,,,0.02,413,weatherlink.com 1.10,2013-02-23 16:59:00,
2013-02-23 11:14:00,35.9,27.0,30.10,ESE,113,1.0,3.0,69,0.02,,,0.03,673,weatherlink.com 1.10,2013-02-23 17:14:00,
2013-02-23 11:29:00,37.4,27.0,30.10,South,171,0.0,2.0,65,0.03,,,0.04,728,weatherlink.com 1.10,2013-02-23 17:29:00,
2013-02-23 11:44:00,38.1,27.0,30.09,North,355,2.0,4.0,64,0.04,,,0.06,573,weatherlink.com 1.10,2013-02-23 17:44:00,
2013-02-23 11:59:00,38.9,26.0,30.08,SSE,164,0.0,4.0,60,0.05,,,0.07,494,weatherlink.com 1.10,2013-02-23 17:59:00,
2013-02-23 12:14:00,40.0,29.0,30.08,SW,215,1.0,3.0,64,0.05,,,0.08,733,weatherlink.com 1.10,2013-02-23 18:14:00,
2013-02-23 12:29:00,40.9,28.0,30.07,SW,228,0.0,3.0,60,0.05,,,0.10,520,weatherlink.com 1.10,2013-02-23 18:29:00,
2013-02-23 12:44:00,41.7,29.0,30.06,SE,144,0.0,4.0,60,0.05,,,0.11,369,weatherlink.com 1.10,2013-02-23 18:44:00,
2013-02-23 12:59:00,41.7,28.0,30.05,NW,325,2.0,6.0,58,0.04,,,0.11,541,weatherlink.com 1.10,2013-02-23 18:59:00,
2013-02-23 13:14:00,41.7,28.0,30.05,North,355,1.0,6.0,59,0.03,,,0.12,533,weatherlink.com 1.10,2013-02-23 19:14:00,
2013-02-23 13:29:00,42.4,28.0,30.04,NNW,329,2.0,6.0,58,0.03,,,0.13,629,weatherlink.com 1.10,2013-02-23 19:29:00,
2013-02-23 13:44:00,43.0,28.0,30.04,NNW,338,0.0,6.0,55,0.03,,,0.14,557,weatherlink.com 1.10,2013-02-23 19:44:00,
2013-02-23 13:59:00,43.9,28.0,30.03,NNW,342,2.0,7.0,54,0.04,,,0.15,343,weatherlink.com 1.10,2013-02-23 19:59:00,
2013-02-23 14:14:00,43.5,28.0,30.02,North,5,0.0,7.0,54,0.04,,,0.16,292,weatherlink.com 1.10,2013-02-23 20:14:00,
2013-02-23 14:30:00,43.8,28.0,30.02,North,5,0.0,3.0,55,0.03,,,0.16,264,weatherlink.com 1.10,2013-02-23 20:30:00,
2013-02-23 14:45:00,44.7,28.0,30.02,North,5,1.0,5.0,53,0.03,,,0.17,424,weatherlink.com 1.10,2013-02-23 20:45:00,
2013-02-23 15:00:00,44.7,29.0,30.02,North,5,0.0,4.0,54,0.03,,,0.18,269,weatherlink.com 1.10,2013-02-23 21:00:00,
2013-02-23 15:15:00,44.5,27.0,30.01,North,5,1.0,3.0,51,0.03,,,0.19,234,weatherlink.com 1.10,2013-02-23 21:15:00,
2013-02-23 15:30:00,44.2,27.0,30.01,North,5,0.0,1.0,51,0.03,,,0.19,195,weatherlink.com 1.10,2013-02-23 21:30:00,
2013-02-23 15:45:00,44.2,27.0,30.01,North,5,0.0,1.0,52,0.03,,,0.20,248,weatherlink.com 1.10,2013-02-23 21:45:00,
2013-02-23 16:00:00,45.8,29.0,30.00,SE,125,0.0,3.0,52,0.02,,,0.20,371,weatherlink.com 1.10,2013-02-23 22:00:00,
2013-02-23 16:15:00,47.0,29.0,30.00,NNW,348,0.0,3.0,50,0.02,,,0.21,299,weatherlink.com 1.10,2013-02-23 22:15:00,
2013-02-23 16:30:00,47.2,29.0,30.01,NNW,343,1.0,4.0,49,0.03,,,0.22,237,weatherlink.com 1.10,2013-02-23 22:30:00,
2013-02-23 16:45:00,46.8,29.0,30.00,North,5,0.0,2.0,51,0.02,,,0.22,174,weatherlink.com 1.10,2013-02-23 22:45:00,
2013-02-23 17:00:00,46.8,29.0,30.00,North,5,1.0,2.0,50,0.03,,,0.23,120,weatherlink.com 1.10,2013-02-23 23:00:00,
2013-02-23 17:15:00,46.5,28.0,29.99,ENE,59,0.0,2.0,49,0.02,,,0.23,69,weatherlink.com 1.10,2013-02-23 23:15:00,
2013-02-23 17:30:00,46.3,27.0,29.99,ENE,59,0.0,1.0,48,0.01,,,0.23,33,weatherlink.com 1.10,2013-02-23 23:30:00,
2013-02-23 17:45:00,45.5,27.0,30.00,ENE,59,0.0,1.0,48,0.01,,,0.23,18,weatherlink.com 1.10,2013-02-23 23:45:00,
2013-02-23 18:00:00,44.0,27.0,30.00,ENE,59,0.0,0.0,51,0.00,,,0.23,0,weatherlink.com 1.10,2013-02-24 00:00:00,
2013-02-23 18:15:00,42.4,27.0,30.00,ENE,59,0.0,1.0,54,0.00,,,0.23,0,weatherlink.com 1.10,2013-02-24 00:15:00,
2013-02-23 18:30:00,41.1,26.0,30.01,ENE,59,0.0,0.0,56,0.00,,,0.23,0,weatherlink.com 1.10,2013-02-24 00:30:00,
2013-02-23 18:45:00,40.1,27.0,30.01,ENE,59,0.0,1.0,59,0.00,,,0.23,0,weatherlink.com 1.10,2013-02-24 00:45:00,
2013-02-23 19:00:00,39.1,27.0,30.02,ENE,59,0.0,0.0,63,0.01,,,0.24,0,weatherlink.com 1.10,2013-02-24 01:00:00,
2013-02-23 19:15:00,38.0,28.0,30.02,ENE,59,0.0,0.0,68,0.01,,,0.24,0,weatherlink.com 1.10,2013-02-24 01:15:00,
2013-02-23 19:30:00,36.6,29.0,30.02,ENE,59,0.0,1.0,74,0.01,,,0.24,0,weatherlink.com 1.10,2013-02-24 01:30:00,
2013-02-23 19:45:00,35.5,29.0,30.02,ENE,59,0.0,0.0,77,0.01,,,0.24,0,weatherlink.com 1.10,2013-02-24 01:45:00,
2013-02-23 20:00:00,34.7,28.0,30.02,ENE,59,0.0,0.0,76,0.00,,,0.24,0,weatherlink.com 1.10,2013-02-24 02:00:00,
2013-02-23 20:15:00,33.8,28.0,30.03,ENE,59,0.0,0.0,79,0.00,,,0.24,0,weatherlink.com 1.10,2013-02-24 02:15:00,
2013-02-23 20:30:00,33.0,28.0,30.03,ENE,59,0.0,0.0,83,0.00,,,0.24,0,weatherlink.com 1.10,2013-02-24 02:30:00,
2013-02-23 20:45:00,32.5,28.0,30.03,ENE,59,0.0,1.0,84,0.00,,,0.24,0,weatherlink.com 1.10,2013-02-24 02:45:00,
2013-02-23 21:00:00,32.0,28.0,30.04,ENE,59,0.0,0.0,85,0.00,,,0.24,0,weatherlink.com 1.10,2013-02-24 03:00:00,
2013-02-23 21:15:00,31.6,28.0,30.05,ENE,59,0.0,0.0,86,0.00,,,0.24,0,weatherlink.com 1.10,2013-02-24 03:15:00,
2013-02-23 21:30:00,31.2,28.0,30.05,ENE,59,0.0,1.0,87,0.00,,,0.24,0,weatherlink.com 1.10,2013-02-24 03:30:00,
2013-02-23 21:45:00,30.7,27.0,30.05,ENE,59,0.0,0.0,87,0.00,,,0.24,0,weatherlink.com 1.10,2013-02-24 03:45:00,
2013-02-23 22:00:00,30.3,27.0,30.04,ENE,59,0.0,0.0,88,0.00,,,0.24,0,weatherlink.com 1.10,2013-02-24 04:00:00,
2013-02-23 22:15:00,29.7,27.0,30.04,ENE,59,0.0,0.0,88,0.00,,,0.24,0,weatherlink.com 1.10,2013-02-24 04:15:00,
2013-02-23 22:30:00,29.3,27.0,30.03,ENE,59,0.0,0.0,90,0.00,,,0.24,0,weatherlink.com 1.10,2013-02-24 04:30:00,
2013-02-23 22:45:00,28.9,27.0,30.04,ENE,59,0.0,0.0,91,0.00,,,0.24,0,weatherlink.com 1.10,2013-02-24 04:45:00,
2013-02-23 23:00:00,28.7,26.0,30.04,ENE,59,0.0,0.0,91,0.00,,,0.24,0,weatherlink.com 1.10,2013-02-24 05:00:00,
2013-02-23 23:15:00,28.5,27.0,30.04,ENE,59,0.0,0.0,92,0.00,,,0.24,0,weatherlink.com 1.10,2013-02-24 05:15:00,
2013-02-23 23:30:00,28.6,27.0,30.04,ENE,59,0.0,0.0,92,0.00,,,0.24,0,weatherlink.com 1.10,2013-02-24 05:30:00,
2013-02-23 23:45:00,28.3,26.0,30.04,ENE,59,0.0,0.0,92,0.00,,,0.24,0,weatherlink.com 1.10,2013-02-24 05:45:00,